createdAt,value
2018-02-02T00:00:41.481Z,8.63
2018-02-02T00:03:08.931Z,6.60
2018-02-02T00:05:36.411Z,7.50
2018-02-02T00:08:04.716Z,7.37
2018-02-02T00:10:32.181Z,8.00
2018-02-02T00:12:59.763Z,7.93
2018-02-02T00:15:27.242Z,8.13
2018-02-02T00:17:54.713Z,8.30
2018-02-02T00:20:22.169Z,8.20
2018-02-02T00:22:49.649Z,7.57
2018-02-02T00:25:17.891Z,8.17
2018-02-02T00:27:45.375Z,9.13
2018-02-02T00:30:13.697Z,7.70
2018-02-02T00:32:41.165Z,7.23
2018-02-02T00:35:08.629Z,7.67
2018-02-02T00:37:36.107Z,7.97
2018-02-02T00:40:03.569Z,7.90
2018-02-02T00:42:31.030Z,8.03
2018-02-02T00:44:58.481Z,7.77
2018-02-02T00:47:25.958Z,8.70
2018-02-02T00:49:54.179Z,9.10
2018-02-02T00:52:21.662Z,8.33
2018-02-02T00:54:49.137Z,9.30
2018-02-02T00:57:16.619Z,9.77
2018-02-02T00:59:44.844Z,8.17
2018-02-02T01:02:12.309Z,8.77
2018-02-02T01:04:39.787Z,8.50
2018-02-02T01:07:07.247Z,9.10
2018-02-02T01:09:34.718Z,11.03
2018-02-02T01:12:02.196Z,9.50
2018-02-02T01:14:29.654Z,9.83
2018-02-02T01:16:57.119Z,9.73
2018-02-02T01:19:24.578Z,9.90
2018-02-02T01:21:52.041Z,9.00
2018-02-02T01:24:19.513Z,10.10
2018-02-02T01:26:46.985Z,10.07
2018-02-02T01:29:14.461Z,8.83
2018-02-02T01:31:42.002Z,8.53
2018-02-02T01:34:09.477Z,9.70
2018-02-02T01:36:36.966Z,10.10
2018-02-02T01:39:05.223Z,9.20
2018-02-02T01:41:32.709Z,9.03
2018-02-02T01:44:00.925Z,9.50
2018-02-02T01:46:28.417Z,8.83
2018-02-02T01:48:55.877Z,9.10
2018-02-02T01:51:23.340Z,10.20
2018-02-02T01:53:51.226Z,10.00
2018-02-02T01:56:19.473Z,10.07
2018-02-02T01:58:46.929Z,10.90
2018-02-02T02:01:14.405Z,10.00
2018-02-02T02:03:41.875Z,10.50
2018-02-02T02:06:10.147Z,10.83
2018-02-02T02:08:38.457Z,11.00
2018-02-02T02:11:05.946Z,10.40
2018-02-02T02:13:33.432Z,9.80
2018-02-02T02:16:01.023Z,10.53
2018-02-02T02:18:28.566Z,10.80
2018-02-02T02:20:56.030Z,10.23
2018-02-02T02:23:24.293Z,12.30
2018-02-02T02:25:51.794Z,11.20
2018-02-02T02:28:19.291Z,9.70
2018-02-02T02:30:46.808Z,10.50
2018-02-02T02:33:14.297Z,10.70
2018-02-02T02:35:41.813Z,10.00
2018-02-02T02:38:09.466Z,10.23
2018-02-02T02:40:36.950Z,9.73
2018-02-02T02:43:04.446Z,11.83
2018-02-02T02:45:31.939Z,10.30
2018-02-02T02:48:00.204Z,12.40
2018-02-02T02:50:28.466Z,12.20
2018-02-02T02:52:55.967Z,12.17
2018-02-02T02:55:23.450Z,11.50
2018-02-02T02:57:50.948Z,12.53
2018-02-02T03:00:18.724Z,11.00
2018-02-02T03:02:47.003Z,12.53
2018-02-02T03:05:15.276Z,12.83
2018-02-02T03:07:43.552Z,12.30
2018-02-02T03:10:11.841Z,12.77
2018-02-02T03:12:40.124Z,12.93
2018-02-02T03:15:08.407Z,11.97
2018-02-02T03:17:36.661Z,13.80
2018-02-02T03:20:04.151Z,14.53
2018-02-02T03:22:31.654Z,12.73
2018-02-02T03:24:59.152Z,12.73
2018-02-02T03:27:26.645Z,12.37
2018-02-02T03:29:54.162Z,12.00
2018-02-02T03:32:22.414Z,13.53
2018-02-02T03:34:49.894Z,12.30
2018-02-02T03:37:18.175Z,13.80
2018-02-02T03:39:46.431Z,14.33
2018-02-02T03:42:13.942Z,11.80
2018-02-02T03:44:41.425Z,11.27
2018-02-02T03:47:08.914Z,12.20
2018-02-02T03:49:36.404Z,11.60
2018-02-02T03:52:03.904Z,13.03
2018-02-02T03:54:31.416Z,11.70
2018-02-02T03:56:58.941Z,11.63
2018-02-02T03:59:26.447Z,11.90
2018-02-02T04:01:53.953Z,10.47
2018-02-02T04:04:21.451Z,10.00
2018-02-02T04:06:49.799Z,11.63
2018-02-02T04:09:17.322Z,10.20
2018-02-02T04:11:44.795Z,10.40
2018-02-02T04:14:12.319Z,9.93
2018-02-02T04:16:39.809Z,10.40
2018-02-02T04:19:07.305Z,10.17
2018-02-02T04:21:34.832Z,9.60
2018-02-02T04:24:02.325Z,10.00
2018-02-02T04:26:29.797Z,11.17
2018-02-02T04:28:58.367Z,11.27
2018-02-02T04:31:25.852Z,11.70
2018-02-02T04:33:54.131Z,14.30
2018-02-02T04:36:22.397Z,14.80
2018-02-02T04:38:50.650Z,14.57
2018-02-02T04:41:18.174Z,14.60
2018-02-02T04:43:45.668Z,16.07
2018-02-02T04:46:13.790Z,14.27
2018-02-02T04:48:41.254Z,16.30
2018-02-02T04:51:08.905Z,16.57
2018-02-02T04:53:36.377Z,16.80
2018-02-02T04:56:03.845Z,16.37
2018-02-02T04:58:31.315Z,19.50
2018-02-02T05:00:58.782Z,18.53
2018-02-02T05:03:26.275Z,19.07
2018-02-02T05:05:54.489Z,19.57
2018-02-02T05:08:21.962Z,17.70
2018-02-02T05:10:49.443Z,19.17
2018-02-02T05:13:16.973Z,18.83
2018-02-02T05:15:44.444Z,19.23
2018-02-02T05:18:11.937Z,20.60
2018-02-02T05:20:39.405Z,18.20
2018-02-02T05:23:07.674Z,19.20
2018-02-02T05:25:35.128Z,18.03
2018-02-02T05:28:02.605Z,18.30
2018-02-02T05:30:30.858Z,18.37
2018-02-02T05:32:58.343Z,18.33
2018-02-02T05:35:26.026Z,17.23
2018-02-02T05:37:53.528Z,17.90
2018-02-02T05:40:21.466Z,17.97
2018-02-02T05:42:48.934Z,17.33
2018-02-02T05:45:16.409Z,16.80
2018-02-02T05:47:43.885Z,17.30
2018-02-02T05:50:11.375Z,18.87
2018-02-02T05:52:38.832Z,19.03
2018-02-02T05:55:06.322Z,18.80
2018-02-02T05:57:33.820Z,18.90
2018-02-02T06:00:01.285Z,17.20
2018-02-02T06:02:29.521Z,20.13
2018-02-02T06:04:56.988Z,20.87
2018-02-02T06:07:24.461Z,19.27
2018-02-02T06:09:51.919Z,18.23
2018-02-02T06:12:19.403Z,19.43
2018-02-02T06:14:47.625Z,18.47
2018-02-02T06:17:15.126Z,17.30
2018-02-02T06:19:43.509Z,17.90
2018-02-02T06:22:11.022Z,18.23
2018-02-02T06:24:38.497Z,18.50
2018-02-02T06:27:06.013Z,20.30
2018-02-02T06:29:33.499Z,19.33
2018-02-02T06:32:00.976Z,16.50
2018-02-02T06:34:28.449Z,16.97
2018-02-02T06:37:04.755Z,18.27
2018-02-02T06:39:32.211Z,17.07
2018-02-02T06:41:59.687Z,17.03
2018-02-02T06:44:27.151Z,16.87
2018-02-02T06:46:54.610Z,15.90
2018-02-02T06:49:22.091Z,16.90
2018-02-02T06:51:49.568Z,17.10
2018-02-02T06:54:17.056Z,19.10
2018-02-02T06:56:45.302Z,19.50
2018-02-02T06:59:12.792Z,21.70
2018-02-02T07:01:41.034Z,19.10
2018-02-02T07:04:08.546Z,21.00
2018-02-02T07:06:36.052Z,19.67
2018-02-02T07:09:03.526Z,21.50
2018-02-02T07:11:31.787Z,19.40
2018-02-02T07:13:59.251Z,20.77
2018-02-02T07:16:26.730Z,20.83
2018-02-02T07:18:54.234Z,18.70
2018-02-02T07:21:21.718Z,21.70
2018-02-02T07:23:49.206Z,21.97
2018-02-02T07:26:17.583Z,21.97
2018-02-02T07:28:45.823Z,21.40
2018-02-02T07:31:13.302Z,21.10
2018-02-02T07:33:40.770Z,21.20
2018-02-02T07:36:09.022Z,23.70
2018-02-02T07:38:36.498Z,19.60
2018-02-02T07:41:03.980Z,21.50
2018-02-02T07:43:32.219Z,19.70
2018-02-02T07:45:59.694Z,22.03
2018-02-02T07:48:27.165Z,17.60
2018-02-02T07:50:55.394Z,18.23
2018-02-02T07:53:22.871Z,17.67
2018-02-02T07:55:50.356Z,18.80
2018-02-02T07:58:18.657Z,16.97
2018-02-02T08:00:51.655Z,17.40
2018-02-02T08:03:19.137Z,14.87
2018-02-02T08:05:47.370Z,18.97
2018-02-02T08:08:14.857Z,18.77
2018-02-02T08:10:42.347Z,17.30
2018-02-02T08:13:09.825Z,14.87
2018-02-02T08:15:38.070Z,13.50
2018-02-02T08:18:05.541Z,15.47
2018-02-02T08:20:33.022Z,13.60
2018-02-02T08:23:01.246Z,14.10
2018-02-02T08:25:28.735Z,13.80
2018-02-02T08:27:56.201Z,14.70
2018-02-02T08:30:23.670Z,14.00
2018-02-02T08:32:51.918Z,13.07
2018-02-02T08:35:19.401Z,11.63
2018-02-02T08:37:46.913Z,13.00
2018-02-02T08:40:14.388Z,13.60
2018-02-02T08:42:41.861Z,12.80
2018-02-02T08:45:09.340Z,11.30
2018-02-02T08:47:36.807Z,12.27
2018-02-02T08:50:05.057Z,11.40
2018-02-02T08:52:32.516Z,11.43
2018-02-02T08:54:59.996Z,11.23
2018-02-02T08:57:28.261Z,12.20
2018-02-02T08:59:55.734Z,10.27
2018-02-02T09:02:23.252Z,11.47
2018-02-02T09:04:50.713Z,10.60
2018-02-02T09:07:18.201Z,10.37
2018-02-02T09:09:45.665Z,11.97
2018-02-02T09:12:13.901Z,9.77
2018-02-02T09:14:42.127Z,9.90
2018-02-02T09:17:10.370Z,11.73
2018-02-02T09:19:37.824Z,9.10
2018-02-02T09:22:05.625Z,10.40
2018-02-02T09:24:33.100Z,13.33
2018-02-02T09:27:00.089Z,11.40
2018-02-02T09:29:28.362Z,12.27
2018-02-02T09:31:55.830Z,11.93
2018-02-02T09:34:23.318Z,12.97
2018-02-02T09:36:51.560Z,14.60
2018-02-02T09:39:19.044Z,13.33
2018-02-02T09:41:47.278Z,14.50
2018-02-02T09:44:14.806Z,15.20
2018-02-02T09:46:43.040Z,15.50
2018-02-02T09:49:10.510Z,17.40
2018-02-02T09:51:38.790Z,17.60
2018-02-02T09:54:06.250Z,15.40
2018-02-02T09:56:34.492Z,17.90
2018-02-02T09:59:01.963Z,17.27
2018-02-02T10:01:29.437Z,17.70
2018-02-02T10:03:56.894Z,18.53
2018-02-02T10:06:24.471Z,18.83
2018-02-02T10:08:54.028Z,17.53
2018-02-02T10:11:21.536Z,19.90
2018-02-02T10:13:49.772Z,20.07
2018-02-02T10:16:17.245Z,16.83
2018-02-02T10:18:44.735Z,19.80
2018-02-02T10:21:13.336Z,18.50
2018-02-02T10:23:40.849Z,19.77
2018-02-02T10:26:08.445Z,17.87
2018-02-02T10:28:36.678Z,18.70
2018-02-02T10:31:04.178Z,17.60
2018-02-02T10:33:32.644Z,17.37
2018-02-02T10:36:00.152Z,20.00
2018-02-02T10:38:27.626Z,19.57
2018-02-02T10:40:55.083Z,19.10
2018-02-02T10:43:22.614Z,17.23
2018-02-02T10:45:50.375Z,19.50
2018-02-02T10:48:17.886Z,15.00
2018-02-02T10:50:45.442Z,15.47
2018-02-02T10:53:12.896Z,14.00
2018-02-02T10:55:40.386Z,16.20
2018-02-02T10:58:11.945Z,13.37
2018-02-02T11:00:45.057Z,12.93
2018-02-02T11:03:18.384Z,14.00
2018-02-02T11:05:46.078Z,12.37
2018-02-02T11:08:13.552Z,13.13
2018-02-02T11:10:41.067Z,12.27
2018-02-02T11:13:08.820Z,12.57
2018-02-02T11:15:36.309Z,11.63
2018-02-02T11:18:03.798Z,12.37
2018-02-02T11:20:31.704Z,10.63
2018-02-02T11:22:59.205Z,12.43
2018-02-02T11:25:26.740Z,10.20
2018-02-02T11:27:54.630Z,9.20
2018-02-02T11:30:23.915Z,9.37
2018-02-02T11:32:51.431Z,8.47
2018-02-02T11:35:19.685Z,10.50
2018-02-02T11:37:48.020Z,7.07
2018-02-02T11:40:15.513Z,6.83
2018-02-02T11:42:43.771Z,7.50
2018-02-02T11:45:11.753Z,7.93
2018-02-02T11:47:39.255Z,8.70
2018-02-02T11:50:06.806Z,8.73
2018-02-02T11:52:35.048Z,9.07
2018-02-02T11:55:03.019Z,6.57
2018-02-02T11:57:30.499Z,7.00
2018-02-02T11:59:58.717Z,7.00
2018-02-02T12:02:26.289Z,5.43
2018-02-02T12:04:53.846Z,4.90
2018-02-02T12:07:22.044Z,4.00
2018-02-02T12:09:49.515Z,3.90
2018-02-02T12:12:16.987Z,7.57
2018-02-02T12:14:45.384Z,4.90
2018-02-02T12:17:13.818Z,4.57
2018-02-02T12:19:42.111Z,3.87
2018-02-02T12:22:15.387Z,3.97
2018-02-02T12:28:04.513Z,5.33
2018-02-02T12:30:51.813Z,4.10
2018-02-02T12:36:22.170Z,4.10
2018-02-02T12:38:50.538Z,5.00
2018-02-02T12:41:18.028Z,4.97
2018-02-02T12:43:46.271Z,5.17
2018-02-02T12:46:14.580Z,5.77
2018-02-02T12:48:42.841Z,3.80
2018-02-02T12:51:15.979Z,4.00
2018-02-02T12:53:43.487Z,3.90
2018-02-02T12:56:12.084Z,4.53
2018-02-02T12:58:39.652Z,4.43
2018-02-02T13:01:08.267Z,3.90
2018-02-02T13:03:35.730Z,5.33
2018-02-02T13:06:03.228Z,3.67
2018-02-02T13:08:30.873Z,2.80
2018-02-02T13:10:58.341Z,3.60
2018-02-02T13:13:25.844Z,3.27
2018-02-02T13:15:53.679Z,4.57
2018-02-02T13:18:21.258Z,3.30
2018-02-02T13:20:49.529Z,2.67
2018-02-02T13:23:17.803Z,4.97
2018-02-02T13:25:46.033Z,4.50
2018-02-02T13:28:13.667Z,5.87
2018-02-02T13:30:42.995Z,8.80
2018-02-02T13:33:10.483Z,12.20
2018-02-02T13:35:37.972Z,5.43
2018-02-02T13:38:06.287Z,7.10
2018-02-02T13:40:33.803Z,5.57
2018-02-02T13:43:02.058Z,5.00
2018-02-02T13:45:29.536Z,5.80
2018-02-02T13:47:57.789Z,6.50
2018-02-02T13:50:25.392Z,6.40
2018-02-02T13:52:53.746Z,5.20
2018-02-02T13:55:21.255Z,4.93
2018-02-02T13:57:49.027Z,5.37
2018-02-02T14:00:17.710Z,5.80
2018-02-02T14:02:45.965Z,6.60
2018-02-02T14:05:13.503Z,6.10
2018-02-02T14:07:41.787Z,7.13
2018-02-02T14:10:10.046Z,6.80
2018-02-02T14:12:37.534Z,5.50
2018-02-02T14:15:05.075Z,6.47
2018-02-02T14:17:33.336Z,7.40
2018-02-02T14:20:00.832Z,7.10
2018-02-02T14:22:28.332Z,7.30
2018-02-02T14:24:55.913Z,6.43
2018-02-02T14:27:24.919Z,5.43
2018-02-02T14:29:52.505Z,7.03
2018-02-02T14:32:21.901Z,6.23
2018-02-02T14:34:50.154Z,7.17
2018-02-02T14:37:17.648Z,8.90
2018-02-02T14:39:45.240Z,8.57
2018-02-02T14:42:12.739Z,8.03
2018-02-02T14:44:41.004Z,8.17
2018-02-02T14:47:08.508Z,9.53
2018-02-02T14:49:36.538Z,9.20
2018-02-02T14:52:04.139Z,10.27
2018-02-02T14:54:31.633Z,9.40
2018-02-02T14:56:59.158Z,8.33
2018-02-02T14:59:26.755Z,9.07
2018-02-02T15:01:55.391Z,7.60
2018-02-02T15:04:23.000Z,8.77
2018-02-02T15:06:50.821Z,8.70
2018-02-02T15:09:18.352Z,9.80
2018-02-02T15:11:46.210Z,8.37
2018-02-02T15:14:13.757Z,7.40
2018-02-02T15:16:41.339Z,9.00
2018-02-02T15:19:08.822Z,9.43
2018-02-02T15:21:37.103Z,8.70
2018-02-02T15:24:05.352Z,7.70
2018-02-02T15:26:32.889Z,8.10
2018-02-02T15:29:00.386Z,8.20
2018-02-02T15:31:27.916Z,7.73
2018-02-02T15:33:55.386Z,9.03
2018-02-02T15:36:22.892Z,7.90
2018-02-02T15:38:50.624Z,9.77
2018-02-02T15:41:19.202Z,9.73
2018-02-02T15:43:47.462Z,10.20
2018-02-02T15:46:14.943Z,9.77
2018-02-02T15:48:43.231Z,11.83
2018-02-02T15:51:13.441Z,12.30
2018-02-02T15:53:41.333Z,9.03
2018-02-02T15:56:08.840Z,12.27
2018-02-02T15:58:36.302Z,7.40
2018-02-02T16:01:03.840Z,10.97
2018-02-02T16:03:31.318Z,10.50
2018-02-02T16:05:58.798Z,7.77
2018-02-02T16:08:26.314Z,7.90
2018-02-02T16:10:53.914Z,8.53
2018-02-02T16:13:21.409Z,12.70
2018-02-02T16:15:48.895Z,11.37
2018-02-02T16:18:16.370Z,10.00
2018-02-02T16:20:43.871Z,10.07
2018-02-02T16:23:12.188Z,11.70
2018-02-02T16:25:39.679Z,10.47
2018-02-02T16:28:07.222Z,10.07
2018-02-02T16:30:35.703Z,12.07
2018-02-02T16:33:03.442Z,11.33
2018-02-02T16:35:31.081Z,11.50
2018-02-02T16:37:59.335Z,10.67
2018-02-02T16:40:26.838Z,11.50
2018-02-02T16:42:54.328Z,11.87
2018-02-02T16:45:22.685Z,12.50
2018-02-02T16:47:51.367Z,12.47
2018-02-02T16:50:18.881Z,12.60
2018-02-02T16:52:47.257Z,12.37
2018-02-02T16:55:14.735Z,14.80
2018-02-02T16:57:42.979Z,15.83
2018-02-02T17:00:10.546Z,15.40
2018-02-02T17:02:38.043Z,17.00
2018-02-02T17:05:05.858Z,18.03
2018-02-02T17:07:33.350Z,17.23
2018-02-02T17:10:03.090Z,18.57
2018-02-02T17:12:31.179Z,18.20
2018-02-02T17:14:58.690Z,18.70
2018-02-02T17:17:26.191Z,21.00
2018-02-02T17:19:53.692Z,18.97
2018-02-02T17:22:22.032Z,20.03
2018-02-02T17:24:49.522Z,19.07
2018-02-02T17:27:17.045Z,19.23
2018-02-02T17:29:44.516Z,20.13
2018-02-02T17:32:12.092Z,19.93
2018-02-02T17:34:39.604Z,21.10
2018-02-02T17:37:07.099Z,23.97
2018-02-02T17:39:34.630Z,20.83
2018-02-02T17:42:02.094Z,20.17
2018-02-02T17:44:29.599Z,23.77
2018-02-02T17:46:57.080Z,25.00
2018-02-02T17:49:25.348Z,23.93
2018-02-02T17:51:52.823Z,23.97
2018-02-02T17:54:21.087Z,23.33
2018-02-02T17:56:48.647Z,24.53
2018-02-02T17:59:16.124Z,22.63
2018-02-02T18:01:46.142Z,24.40
2018-02-02T18:04:14.406Z,27.67
2018-02-02T18:06:42.721Z,25.83
2018-02-02T18:09:10.238Z,27.17
2018-02-02T18:11:37.711Z,27.70
2018-02-02T18:14:05.965Z,25.77
2018-02-02T18:16:33.467Z,30.70
2018-02-02T18:19:01.384Z,30.60
2018-02-02T18:21:28.878Z,29.40
2018-02-02T18:23:56.388Z,29.63
2018-02-02T18:26:23.955Z,25.60
2018-02-02T18:28:51.472Z,25.97
2018-02-02T18:31:18.983Z,28.10
2018-02-02T18:33:46.509Z,26.33
2018-02-02T18:36:14.009Z,28.17
2018-02-02T18:38:41.480Z,27.00
2018-02-02T18:41:09.751Z,28.13
2018-02-02T18:43:37.228Z,26.00
2018-02-02T18:46:04.736Z,27.70
2018-02-02T18:48:32.221Z,28.47
2018-02-02T18:50:59.799Z,29.10
2018-02-02T18:53:27.370Z,29.10
2018-02-02T18:55:55.608Z,31.80
2018-02-02T18:58:23.177Z,30.90
2018-02-02T19:00:50.630Z,30.20
2018-02-02T19:03:18.163Z,32.40
2018-02-02T19:05:45.669Z,35.20
2018-02-02T19:08:13.161Z,36.63
2018-02-02T19:10:40.657Z,33.80
2018-02-02T19:13:08.178Z,33.60
2018-02-02T19:15:35.707Z,33.53
2018-02-02T19:18:04.009Z,31.57
2018-02-02T19:20:31.806Z,35.33
2018-02-02T19:23:00.758Z,30.80
2018-02-02T19:25:30.490Z,32.70
2018-02-02T19:27:58.113Z,31.70
2018-02-02T19:30:26.430Z,36.97
2018-02-02T19:32:54.291Z,39.23
2018-02-02T19:35:23.196Z,32.23
2018-02-02T19:37:52.052Z,33.50
2018-02-02T19:40:20.360Z,34.57
2018-02-02T19:42:48.426Z,35.27
2018-02-02T19:45:16.044Z,31.73
2018-02-02T19:47:43.581Z,31.67
2018-02-02T19:50:11.212Z,31.97
2018-02-02T19:52:40.750Z,34.40
2018-02-02T19:55:10.050Z,33.40
2018-02-02T19:57:40.135Z,34.37
2018-02-02T20:00:07.636Z,32.70
2018-02-02T20:02:35.184Z,31.80
2018-02-02T20:05:03.440Z,33.27
2018-02-02T20:07:30.961Z,33.30
2018-02-02T20:09:58.482Z,32.73
2018-02-02T20:12:26.843Z,30.07
2018-02-02T20:14:54.369Z,36.73
2018-02-02T20:17:22.175Z,33.97
2018-02-02T20:19:51.075Z,35.80
2018-02-02T20:22:18.705Z,31.50
2018-02-02T20:24:46.477Z,29.90
2018-02-02T20:27:14.139Z,30.30
2018-02-02T20:29:42.235Z,31.90
2018-02-02T20:32:10.258Z,33.17
2018-02-02T20:40:32.992Z,31.90
2018-02-02T20:43:01.367Z,35.23
2018-02-02T20:45:30.631Z,34.23
2018-02-02T20:48:00.326Z,35.47
2018-02-02T20:50:40.585Z,36.77
2018-02-02T20:55:49.175Z,34.73
2018-02-02T20:58:18.015Z,34.13
2018-02-02T21:00:49.281Z,33.63
2018-02-02T21:03:17.689Z,36.23
2018-02-02T21:05:45.207Z,37.63
2018-02-02T21:08:13.789Z,34.20
2018-02-02T21:10:43.228Z,36.57
2018-02-02T21:13:11.618Z,35.30
2018-02-02T21:15:39.366Z,35.20
2018-02-02T21:18:07.078Z,36.63
2018-02-02T21:20:35.821Z,33.20
2018-02-02T21:23:07.388Z,33.87
2018-02-02T21:25:37.126Z,36.77
2018-02-02T21:28:06.215Z,36.30
2018-02-02T21:30:37.407Z,32.70
2018-02-02T21:33:06.966Z,36.00
2018-02-02T21:35:38.269Z,34.30
2018-02-02T21:38:07.455Z,37.33
2018-02-02T21:40:37.797Z,35.30
2018-02-02T21:43:08.188Z,35.73
2018-02-02T21:45:35.666Z,36.73
2018-02-02T21:48:04.143Z,34.20
2018-02-02T21:50:31.651Z,34.10
2018-02-02T21:52:59.119Z,34.83
2018-02-02T21:55:26.610Z,34.93
2018-02-02T21:57:54.118Z,35.47
2018-02-02T22:00:21.594Z,37.10
2018-02-02T22:02:49.130Z,36.13
2018-02-02T22:05:16.566Z,33.67
2018-02-02T22:07:44.057Z,39.17
2018-02-02T22:10:11.522Z,40.23
2018-02-02T22:12:39.002Z,38.03
2018-02-02T22:15:07.246Z,37.83
2018-02-02T22:17:34.725Z,39.70
2018-02-02T22:20:03.603Z,39.00
2018-02-02T22:22:31.080Z,38.10
2018-02-02T22:24:59.328Z,37.50
2018-02-02T22:27:26.810Z,36.60
2018-02-02T22:29:54.287Z,41.63
2018-02-02T22:32:22.001Z,39.63
2018-02-02T22:34:50.269Z,39.30
2018-02-02T22:37:17.721Z,41.80
2018-02-02T22:39:45.195Z,43.40
2018-02-02T22:42:12.677Z,41.53
2018-02-02T22:44:40.124Z,41.47
2018-02-02T22:47:07.606Z,42.20
2018-02-02T22:49:35.841Z,45.87
2018-02-02T22:52:03.395Z,42.00
2018-02-02T22:54:30.862Z,48.80
2018-02-02T22:56:58.353Z,41.50
2018-02-02T22:59:26.613Z,41.47
2018-02-02T23:01:54.082Z,40.20
2018-02-02T23:04:21.541Z,40.53
2018-02-02T23:06:49.038Z,40.20
2018-02-02T23:09:16.533Z,38.70
2018-02-02T23:11:43.988Z,36.60
2018-02-02T23:14:11.475Z,35.90
2018-02-02T23:16:38.948Z,31.43
2018-02-02T23:19:07.178Z,34.33
2018-02-02T23:21:34.650Z,32.33
2018-02-02T23:24:02.152Z,33.70
2018-02-02T23:26:29.633Z,31.23
2018-02-02T23:28:57.115Z,31.83
2018-02-02T23:31:24.583Z,31.40
2018-02-02T23:33:52.052Z,29.90
2018-02-02T23:36:19.536Z,30.40
2018-02-02T23:38:47.771Z,28.57
2018-02-02T23:41:15.245Z,28.50
2018-02-02T23:43:42.733Z,25.93
2018-02-02T23:46:11.009Z,25.50
2018-02-02T23:48:39.243Z,25.97
2018-02-02T23:51:06.729Z,27.60
2018-02-02T23:53:34.194Z,27.13
2018-02-02T23:56:02.418Z,26.40
2018-02-02T23:58:29.885Z,27.87
